sensor_id;sensor_type;location;lat;lon;timestamp;temperature;humidity
67275;DHT22;55463;52.324;5.122;2022-08-04T00:01:02;20.17;84.36
67275;DHT22;55463;52.324;5.122;2022-08-04T00:03:37;20.15;84.35
67275;DHT22;55463;52.324;5.122;2022-08-04T00:06:20;20.17;84.66
67275;DHT22;55463;52.324;5.122;2022-08-04T00:08:49;20.13;84.48
67275;DHT22;55463;52.324;5.122;2022-08-04T00:11:21;20.11;84.42
67275;DHT22;55463;52.324;5.122;2022-08-04T00:14:10;20.08;84.49
67275;DHT22;55463;52.324;5.122;2022-08-04T00:16:37;20.04;84.45
67275;DHT22;55463;52.324;5.122;2022-08-04T00:19:19;20.03;84.37
67275;DHT22;55463;52.324;5.122;2022-08-04T00:21:55;19.97;84.25
67275;DHT22;55463;52.324;5.122;2022-08-04T00:24:23;19.94;84.50
67275;DHT22;55463;52.324;5.122;2022-08-04T00:26:52;19.91;84.87
67275;DHT22;55463;52.324;5.122;2022-08-04T00:29:17;19.97;85.79
67275;DHT22;55463;52.324;5.122;2022-08-04T00:31:43;19.91;86.12
67275;DHT22;55463;52.324;5.122;2022-08-04T00:34:11;19.89;86.08
67275;DHT22;55463;52.324;5.122;2022-08-04T00:36:37;19.86;86.07
67275;DHT22;55463;52.324;5.122;2022-08-04T00:39:04;19.87;86.31
67275;DHT22;55463;52.324;5.122;2022-08-04T00:49:43;19.81;86.02
67275;DHT22;55463;52.324;5.122;2022-08-04T01:00:37;19.77;85.69
67275;DHT22;55463;52.324;5.122;2022-08-04T01:03:48;19.77;85.71
67275;DHT22;55463;52.324;5.122;2022-08-04T01:09:04;19.77;85.91
67275;DHT22;55463;52.324;5.122;2022-08-04T01:12:17;19.77;86.14
67275;DHT22;55463;52.324;5.122;2022-08-04T01:17:36;19.76;86.92
67275;DHT22;55463;52.324;5.122;2022-08-04T01:20:08;19.74;87.10
67275;DHT22;55463;52.324;5.122;2022-08-04T01:23:08;19.72;87.30
67275;DHT22;55463;52.324;5.122;2022-08-04T01:26:12;19.72;87.36
67275;DHT22;55463;52.324;5.122;2022-08-04T01:32:00;19.72;88.06
67275;DHT22;55463;52.324;5.122;2022-08-04T01:34:29;19.72;88.54
67275;DHT22;55463;52.324;5.122;2022-08-04T01:37:03;19.72;88.52
67275;DHT22;55463;52.324;5.122;2022-08-04T01:39:40;19.72;88.59
67275;DHT22;55463;52.324;5.122;2022-08-04T01:42:09;19.73;88.61
67275;DHT22;55463;52.324;5.122;2022-08-04T01:44:38;19.80;88.59
67275;DHT22;55463;52.324;5.122;2022-08-04T01:47:06;19.83;88.25
67275;DHT22;55463;52.324;5.122;2022-08-04T01:49:32;19.87;88.37
67275;DHT22;55463;52.324;5.122;2022-08-04T01:51:58;19.90;87.89
67275;DHT22;55463;52.324;5.122;2022-08-04T01:54:25;19.96;87.69
67275;DHT22;55463;52.324;5.122;2022-08-04T01:56:51;19.98;87.31
67275;DHT22;55463;52.324;5.122;2022-08-04T01:59:18;20.00;86.98
67275;DHT22;55463;52.324;5.122;2022-08-04T02:01:44;20.01;86.81
67275;DHT22;55463;52.324;5.122;2022-08-04T02:04:18;20.00;86.88
67275;DHT22;55463;52.324;5.122;2022-08-04T02:15:28;19.98;88.58
67275;DHT22;55463;52.324;5.122;2022-08-04T02:20:34;19.93;88.09
67275;DHT22;55463;52.324;5.122;2022-08-04T02:23:06;19.97;87.82
67275;DHT22;55463;52.324;5.122;2022-08-04T02:25:37;19.96;87.47
67275;DHT22;55463;52.324;5.122;2022-08-04T02:28:15;20.01;87.27
67275;DHT22;55463;52.324;5.122;2022-08-04T02:31:03;20.08;87.00
67275;DHT22;55463;52.324;5.122;2022-08-04T02:33:36;20.13;86.76
67275;DHT22;55463;52.324;5.122;2022-08-04T02:36:05;20.11;86.53
67275;DHT22;55463;52.324;5.122;2022-08-04T02:41:00;20.13;86.51
67275;DHT22;55463;52.324;5.122;2022-08-04T02:43:26;20.15;86.56
67275;DHT22;55463;52.324;5.122;2022-08-04T02:45:55;20.17;86.54
67275;DHT22;55463;52.324;5.122;2022-08-04T02:48:23;20.15;86.58
67275;DHT22;55463;52.324;5.122;2022-08-04T02:50:50;20.20;87.37
67275;DHT22;55463;52.324;5.122;2022-08-04T02:53:17;20.22;88.23
67275;DHT22;55463;52.324;5.122;2022-08-04T02:55:47;20.24;88.82
67275;DHT22;55463;52.324;5.122;2022-08-04T02:58:14;20.26;89.34
67275;DHT22;55463;52.324;5.122;2022-08-04T03:00:41;20.22;89.47
67275;DHT22;55463;52.324;5.122;2022-08-04T03:03:25;20.18;89.31
67275;DHT22;55463;52.324;5.122;2022-08-04T03:09:03;20.17;89.75
67275;DHT22;55463;52.324;5.122;2022-08-04T03:11:50;20.15;89.71
67275;DHT22;55463;52.324;5.122;2022-08-04T03:17:24;20.10;89.22
67275;DHT22;55463;52.324;5.122;2022-08-04T03:50:58;20.17;87.48
67275;DHT22;55463;52.324;5.122;2022-08-04T03:56:55;20.15;88.44
67275;DHT22;55463;52.324;5.122;2022-08-04T04:00:03;20.14;88.38
67275;DHT22;55463;52.324;5.122;2022-08-04T04:08:29;20.13;88.02
67275;DHT22;55463;52.324;5.122;2022-08-04T04:12:05;20.13;87.91
67275;DHT22;55463;52.324;5.122;2022-08-04T04:17:00;20.03;87.92
67275;DHT22;55463;52.324;5.122;2022-08-04T04:33:30;20.11;88.66
67275;DHT22;55463;52.324;5.122;2022-08-04T04:39:00;20.22;88.51
67275;DHT22;55463;52.324;5.122;2022-08-04T04:47:08;20.28;88.21
67275;DHT22;55463;52.324;5.122;2022-08-04T04:49:49;20.35;88.34
67275;DHT22;55463;52.324;5.122;2022-08-04T04:52:37;20.36;88.32
67275;DHT22;55463;52.324;5.122;2022-08-04T04:55:20;20.38;88.30
67275;DHT22;55463;52.324;5.122;2022-08-04T04:57:52;20.43;87.98
67275;DHT22;55463;52.324;5.122;2022-08-04T05:00:18;20.49;87.93
67275;DHT22;55463;52.324;5.122;2022-08-04T05:03:21;20.48;87.96
67275;DHT22;55463;52.324;5.122;2022-08-04T05:11:08;20.60;88.16
67275;DHT22;55463;52.324;5.122;2022-08-04T05:13:51;20.68;88.57
67275;DHT22;55463;52.324;5.122;2022-08-04T05:16:31;20.73;88.36
67275;DHT22;55463;52.324;5.122;2022-08-04T05:22:00;20.84;87.41
67275;DHT22;55463;52.324;5.122;2022-08-04T05:24:30;20.86;86.12
67275;DHT22;55463;52.324;5.122;2022-08-04T05:27:01;20.96;86.13
67275;DHT22;55463;52.324;5.122;2022-08-04T05:29:34;21.03;86.26
67275;DHT22;55463;52.324;5.122;2022-08-04T05:32:02;21.10;86.25
67275;DHT22;55463;52.324;5.122;2022-08-04T05:34:33;21.11;85.27
67275;DHT22;55463;52.324;5.122;2022-08-04T05:37:02;21.21;85.53
67275;DHT22;55463;52.324;5.122;2022-08-04T05:40:07;21.28;86.13
67275;DHT22;55463;52.324;5.122;2022-08-04T05:42:28;21.34;85.76
67275;DHT22;55463;52.324;5.122;2022-08-04T05:44:54;21.38;85.98
67275;DHT22;55463;52.324;5.122;2022-08-04T05:47:21;21.45;85.95
67275;DHT22;55463;52.324;5.122;2022-08-04T05:49:49;21.45;84.79
67275;DHT22;55463;52.324;5.122;2022-08-04T05:52:14;21.48;84.57
67275;DHT22;55463;52.324;5.122;2022-08-04T05:54:40;21.49;84.02
67275;DHT22;55463;52.324;5.122;2022-08-04T05:57:07;21.53;83.92
67275;DHT22;55463;52.324;5.122;2022-08-04T05:59:37;21.56;84.37
67275;DHT22;55463;52.324;5.122;2022-08-04T06:02:03;21.60;83.81
67275;DHT22;55463;52.324;5.122;2022-08-04T06:04:34;21.65;84.06
67275;DHT22;55463;52.324;5.122;2022-08-04T06:07:00;21.66;84.00
67275;DHT22;55463;52.324;5.122;2022-08-04T06:09:26;21.70;83.50
67275;DHT22;55463;52.324;5.122;2022-08-04T06:11:52;21.79;83.62
67275;DHT22;55463;52.324;5.122;2022-08-04T06:14:20;21.85;83.83
67275;DHT22;55463;52.324;5.122;2022-08-04T06:16:48;21.82;83.52
67275;DHT22;55463;52.324;5.122;2022-08-04T06:19:15;21.92;83.77
67275;DHT22;55463;52.324;5.122;2022-08-04T06:21:45;21.97;84.28
67275;DHT22;55463;52.324;5.122;2022-08-04T06:24:16;21.98;83.37
67275;DHT22;55463;52.324;5.122;2022-08-04T06:26:43;22.05;83.31
67275;DHT22;55463;52.324;5.122;2022-08-04T06:29:11;22.11;83.12
67275;DHT22;55463;52.324;5.122;2022-08-04T06:31:45;22.21;83.34
67275;DHT22;55463;52.324;5.122;2022-08-04T06:34:21;22.24;82.87
67275;DHT22;55463;52.324;5.122;2022-08-04T06:36:47;22.30;83.17
67275;DHT22;55463;52.324;5.122;2022-08-04T06:39:14;22.38;83.59
67275;DHT22;55463;52.324;5.122;2022-08-04T06:41:40;22.42;83.70
67275;DHT22;55463;52.324;5.122;2022-08-04T06:44:08;22.52;83.47
67275;DHT22;55463;52.324;5.122;2022-08-04T06:46:36;22.70;82.90
67275;DHT22;55463;52.324;5.122;2022-08-04T06:49:02;22.70;82.11
67275;DHT22;55463;52.324;5.122;2022-08-04T06:51:29;22.60;82.46
67275;DHT22;55463;52.324;5.122;2022-08-04T06:53:56;22.63;82.74
67275;DHT22;55463;52.324;5.122;2022-08-04T06:56:21;22.77;82.90
67275;DHT22;55463;52.324;5.122;2022-08-04T06:58:49;22.79;82.61
67275;DHT22;55463;52.324;5.122;2022-08-04T07:01:18;22.73;82.80
67275;DHT22;55463;52.324;5.122;2022-08-04T07:03:45;22.69;82.80
67275;DHT22;55463;52.324;5.122;2022-08-04T07:06:11;22.65;83.24
67275;DHT22;55463;52.324;5.122;2022-08-04T07:08:37;22.70;83.21
67275;DHT22;55463;52.324;5.122;2022-08-04T07:11:03;22.76;83.00
67275;DHT22;55463;52.324;5.122;2022-08-04T07:13:31;22.80;81.86
67275;DHT22;55463;52.324;5.122;2022-08-04T07:15:57;22.86;82.24
67275;DHT22;55463;52.324;5.122;2022-08-04T07:18:23;22.97;82.29
67275;DHT22;55463;52.324;5.122;2022-08-04T07:20:49;23.04;81.23
67275;DHT22;55463;52.324;5.122;2022-08-04T07:23:22;23.01;80.60
67275;DHT22;55463;52.324;5.122;2022-08-04T07:25:52;23.03;80.04
67275;DHT22;55463;52.324;5.122;2022-08-04T07:28:18;23.11;79.43
67275;DHT22;55463;52.324;5.122;2022-08-04T07:30:47;23.32;78.82
67275;DHT22;55463;52.324;5.122;2022-08-04T07:33:14;23.55;79.78
67275;DHT22;55463;52.324;5.122;2022-08-04T07:35:42;23.59;78.67
67275;DHT22;55463;52.324;5.122;2022-08-04T07:38:08;23.65;78.69
67275;DHT22;55463;52.324;5.122;2022-08-04T07:40:35;23.54;77.32
67275;DHT22;55463;52.324;5.122;2022-08-04T07:43:01;23.67;78.47
67275;DHT22;55463;52.324;5.122;2022-08-04T07:45:27;23.86;78.85
67275;DHT22;55463;52.324;5.122;2022-08-04T07:47:52;24.07;77.73
67275;DHT22;55463;52.324;5.122;2022-08-04T07:50:18;24.48;75.04
67275;DHT22;55463;52.324;5.122;2022-08-04T07:52:44;24.62;75.01
67275;DHT22;55463;52.324;5.122;2022-08-04T07:55:10;24.42;74.88
67275;DHT22;55463;52.324;5.122;2022-08-04T07:57:37;24.94;74.85
67275;DHT22;55463;52.324;5.122;2022-08-04T08:00:03;25.06;73.05
67275;DHT22;55463;52.324;5.122;2022-08-04T08:02:29;25.34;72.50
67275;DHT22;55463;52.324;5.122;2022-08-04T08:04:55;25.85;72.31
67275;DHT22;55463;52.324;5.122;2022-08-04T08:07:20;25.58;71.46
67275;DHT22;55463;52.324;5.122;2022-08-04T08:09:46;25.69;71.48
67275;DHT22;55463;52.324;5.122;2022-08-04T08:12:12;26.01;71.24
67275;DHT22;55463;52.324;5.122;2022-08-04T08:14:38;26.55;71.83
67275;DHT22;55463;52.324;5.122;2022-08-04T08:17:04;26.90;68.41
67275;DHT22;55463;52.324;5.122;2022-08-04T08:19:30;26.61;68.53
67275;DHT22;55463;52.324;5.122;2022-08-04T08:21:56;26.55;67.42
67275;DHT22;55463;52.324;5.122;2022-08-04T08:24:22;27.04;69.56
67275;DHT22;55463;52.324;5.122;2022-08-04T08:26:47;27.59;67.22
67275;DHT22;55463;52.324;5.122;2022-08-04T08:29:13;28.18;65.92
67275;DHT22;55463;52.324;5.122;2022-08-04T08:31:40;28.65;65.20
67275;DHT22;55463;52.324;5.122;2022-08-04T08:34:05;28.48;63.56
67275;DHT22;55463;52.324;5.122;2022-08-04T08:36:38;28.45;62.24
67275;DHT22;55463;52.324;5.122;2022-08-04T08:39:11;28.45;63.21
67275;DHT22;55463;52.324;5.122;2022-08-04T08:49:48;28.43;61.51
67275;DHT22;55463;52.324;5.122;2022-08-04T08:52:25;28.78;60.87
67275;DHT22;55463;52.324;5.122;2022-08-04T08:54:59;29.19;60.58
67275;DHT22;55463;52.324;5.122;2022-08-04T09:03:09;29.10;55.91
67275;DHT22;55463;52.324;5.122;2022-08-04T09:08:48;29.51;57.21
67275;DHT22;55463;52.324;5.122;2022-08-04T09:11:19;29.57;56.70
67275;DHT22;55463;52.324;5.122;2022-08-04T09:13:53;28.66;59.36
67275;DHT22;55463;52.324;5.122;2022-08-04T09:16:50;28.93;58.45
67275;DHT22;55463;52.324;5.122;2022-08-04T09:19:30;28.95;57.52
67275;DHT22;55463;52.324;5.122;2022-08-04T09:22:05;28.85;56.57
67275;DHT22;55463;52.324;5.122;2022-08-04T09:24:49;29.24;55.31
67275;DHT22;55463;52.324;5.122;2022-08-04T09:27:37;29.14;55.27
67275;DHT22;55463;52.324;5.122;2022-08-04T09:30:05;29.30;55.11
67275;DHT22;55463;52.324;5.122;2022-08-04T09:37:43;28.99;55.81
67275;DHT22;55463;52.324;5.122;2022-08-04T09:40:20;29.10;55.34
67275;DHT22;55463;52.324;5.122;2022-08-04T09:42:56;29.11;55.67
67275;DHT22;55463;52.324;5.122;2022-08-04T09:45:49;28.36;54.60
67275;DHT22;55463;52.324;5.122;2022-08-04T09:48:30;28.24;56.98
67275;DHT22;55463;52.324;5.122;2022-08-04T09:50:58;27.66;57.57
67275;DHT22;55463;52.324;5.122;2022-08-04T09:56:38;27.33;58.66
67275;DHT22;55463;52.324;5.122;2022-08-04T10:01:35;27.42;60.21
67275;DHT22;55463;52.324;5.122;2022-08-04T10:04:04;27.27;59.63
67275;DHT22;55463;52.324;5.122;2022-08-04T10:09:13;27.06;61.95
67275;DHT22;55463;52.324;5.122;2022-08-04T10:11:54;26.83;62.03
67275;DHT22;55463;52.324;5.122;2022-08-04T10:14:36;26.62;61.11
67275;DHT22;55463;52.324;5.122;2022-08-04T10:19:37;26.62;64.16
67275;DHT22;55463;52.324;5.122;2022-08-04T10:22:14;26.61;62.40
67275;DHT22;55463;52.324;5.122;2022-08-04T10:28:19;26.37;62.96
67275;DHT22;55463;52.324;5.122;2022-08-04T10:30:50;26.48;62.21
67275;DHT22;55463;52.324;5.122;2022-08-04T10:33:26;26.44;61.48
67275;DHT22;55463;52.324;5.122;2022-08-04T10:36:05;26.56;61.73
67275;DHT22;55463;52.324;5.122;2022-08-04T10:38:36;26.51;60.17
67275;DHT22;55463;52.324;5.122;2022-08-04T10:46:40;26.30;62.00
67275;DHT22;55463;52.324;5.122;2022-08-04T10:49:36;26.37;60.65
67275;DHT22;55463;52.324;5.122;2022-08-04T10:52:12;26.44;61.44
67275;DHT22;55463;52.324;5.122;2022-08-04T10:57:39;26.75;60.64
67275;DHT22;55463;52.324;5.122;2022-08-04T11:00:09;26.72;60.22
67275;DHT22;55463;52.324;5.122;2022-08-04T11:03:00;26.72;60.51
67275;DHT22;55463;52.324;5.122;2022-08-04T11:08:11;26.28;61.84
67275;DHT22;55463;52.324;5.122;2022-08-04T11:10:44;26.31;62.46
67275;DHT22;55463;52.324;5.122;2022-08-04T11:13:13;26.25;61.75
67275;DHT22;55463;52.324;5.122;2022-08-04T11:15:45;26.07;61.46
67275;DHT22;55463;52.324;5.122;2022-08-04T11:18:16;26.10;62.68
67275;DHT22;55463;52.324;5.122;2022-08-04T11:20:49;26.03;61.64
67275;DHT22;55463;52.324;5.122;2022-08-04T11:23:17;25.89;60.66
67275;DHT22;55463;52.324;5.122;2022-08-04T11:26:20;26.20;60.18
67275;DHT22;55463;52.324;5.122;2022-08-04T11:29:06;26.56;59.58
67275;DHT22;55463;52.324;5.122;2022-08-04T11:31:42;27.21;58.11
67275;DHT22;55463;52.324;5.122;2022-08-04T11:34:19;27.44;57.07
67275;DHT22;55463;52.324;5.122;2022-08-04T11:39:49;27.81;55.55
67275;DHT22;55463;52.324;5.122;2022-08-04T11:42:29;28.17;56.57
67275;DHT22;55463;52.324;5.122;2022-08-04T11:47:54;27.58;55.34
67275;DHT22;55463;52.324;5.122;2022-08-04T11:53:24;28.25;55.83
67275;DHT22;55463;52.324;5.122;2022-08-04T11:55:51;28.12;54.27
67275;DHT22;55463;52.324;5.122;2022-08-04T11:58:19;28.61;54.08
67275;DHT22;55463;52.324;5.122;2022-08-04T12:03:45;29.33;52.80
67275;DHT22;55463;52.324;5.122;2022-08-04T12:06:28;29.82;50.65
67275;DHT22;55463;52.324;5.122;2022-08-04T12:17:32;29.79;51.09
67275;DHT22;55463;52.324;5.122;2022-08-04T12:20:04;29.13;51.51
67275;DHT22;55463;52.324;5.122;2022-08-04T12:22:35;29.14;51.86
67275;DHT22;55463;52.324;5.122;2022-08-04T12:25:06;29.55;54.47
67275;DHT22;55463;52.324;5.122;2022-08-04T12:27:36;29.38;51.01
67275;DHT22;55463;52.324;5.122;2022-08-04T12:30:04;29.76;51.66
67275;DHT22;55463;52.324;5.122;2022-08-04T12:32:58;29.93;49.39
67275;DHT22;55463;52.324;5.122;2022-08-04T12:35:29;29.92;50.95
67275;DHT22;55463;52.324;5.122;2022-08-04T12:38:04;29.92;51.99
67275;DHT22;55463;52.324;5.122;2022-08-04T12:40:39;29.69;50.49
67275;DHT22;55463;52.324;5.122;2022-08-04T12:43:10;30.03;52.47
67275;DHT22;55463;52.324;5.122;2022-08-04T12:45:43;30.36;52.04
67275;DHT22;55463;52.324;5.122;2022-08-04T12:48:10;30.02;49.58
67275;DHT22;55463;52.324;5.122;2022-08-04T12:50:37;30.20;49.33
67275;DHT22;55463;52.324;5.122;2022-08-04T12:53:11;30.60;49.85
67275;DHT22;55463;52.324;5.122;2022-08-04T12:55:37;30.41;49.91
67275;DHT22;55463;52.324;5.122;2022-08-04T12:58:21;30.33;48.94
67275;DHT22;55463;52.324;5.122;2022-08-04T13:01:09;30.47;48.32
67275;DHT22;55463;52.324;5.122;2022-08-04T13:03:38;30.61;48.83
67275;DHT22;55463;52.324;5.122;2022-08-04T13:06:06;30.13;47.45
67275;DHT22;55463;52.324;5.122;2022-08-04T13:08:35;30.06;49.51
67275;DHT22;55463;52.324;5.122;2022-08-04T13:11:02;30.27;51.27
67275;DHT22;55463;52.324;5.122;2022-08-04T13:13:30;29.95;49.58
67275;DHT22;55463;52.324;5.122;2022-08-04T13:16:00;30.14;49.68
67275;DHT22;55463;52.324;5.122;2022-08-04T13:18:28;30.08;49.10
67275;DHT22;55463;52.324;5.122;2022-08-04T13:20:54;30.00;49.68
67275;DHT22;55463;52.324;5.122;2022-08-04T13:23:24;29.72;47.43
67275;DHT22;55463;52.324;5.122;2022-08-04T13:25:52;30.17;49.33
67275;DHT22;55463;52.324;5.122;2022-08-04T13:28:26;30.34;49.68
67275;DHT22;55463;52.324;5.122;2022-08-04T13:30:54;30.36;50.97
67275;DHT22;55463;52.324;5.122;2022-08-04T13:33:20;30.33;47.85
67275;DHT22;55463;52.324;5.122;2022-08-04T13:35:47;30.21;48.68
67275;DHT22;55463;52.324;5.122;2022-08-04T13:38:15;29.98;49.48
67275;DHT22;55463;52.324;5.122;2022-08-04T13:40:43;29.68;49.37
67275;DHT22;55463;52.324;5.122;2022-08-04T13:43:21;29.72;50.15
67275;DHT22;55463;52.324;5.122;2022-08-04T13:45:48;29.65;50.19
67275;DHT22;55463;52.324;5.122;2022-08-04T13:48:14;29.44;50.81
67275;DHT22;55463;52.324;5.122;2022-08-04T13:50:44;29.62;52.45
67275;DHT22;55463;52.324;5.122;2022-08-04T13:53:10;29.57;48.99
67275;DHT22;55463;52.324;5.122;2022-08-04T13:55:37;29.54;50.74
67275;DHT22;55463;52.324;5.122;2022-08-04T14:00:50;29.68;50.48
67275;DHT22;55463;52.324;5.122;2022-08-04T14:06:15;29.20;50.46
67275;DHT22;55463;52.324;5.122;2022-08-04T14:11:36;28.64;50.47
67275;DHT22;55463;52.324;5.122;2022-08-04T14:14:21;28.91;50.23
67275;DHT22;55463;52.324;5.122;2022-08-04T14:19:50;29.10;51.16
67275;DHT22;55463;52.324;5.122;2022-08-04T14:27:47;28.71;51.27
67275;DHT22;55463;52.324;5.122;2022-08-04T14:33:09;28.30;51.58
67275;DHT22;55463;52.324;5.122;2022-08-04T14:35:35;27.96;50.92
67275;DHT22;55463;52.324;5.122;2022-08-04T14:38:08;28.24;52.54
67275;DHT22;55463;52.324;5.122;2022-08-04T14:40:37;28.14;50.50
67275;DHT22;55463;52.324;5.122;2022-08-04T14:43:03;28.48;52.44
67275;DHT22;55463;52.324;5.122;2022-08-04T14:45:41;28.06;51.19
67275;DHT22;55463;52.324;5.122;2022-08-04T14:48:12;28.03;51.93
67275;DHT22;55463;52.324;5.122;2022-08-04T14:50:43;28.12;52.99
67275;DHT22;55463;52.324;5.122;2022-08-04T14:53:20;28.14;51.99
67275;DHT22;55463;52.324;5.122;2022-08-04T14:55:54;27.62;53.88
67275;DHT22;55463;52.324;5.122;2022-08-04T14:58:24;27.81;52.76
67275;DHT22;55463;52.324;5.122;2022-08-04T15:00:52;27.97;54.04
67275;DHT22;55463;52.324;5.122;2022-08-04T15:03:19;27.76;52.97
67275;DHT22;55463;52.324;5.122;2022-08-04T15:05:46;27.90;53.66
67275;DHT22;55463;52.324;5.122;2022-08-04T15:08:12;27.96;53.84
67275;DHT22;55463;52.324;5.122;2022-08-04T15:10:39;27.89;53.52
67275;DHT22;55463;52.324;5.122;2022-08-04T15:13:05;27.88;54.95
67275;DHT22;55463;52.324;5.122;2022-08-04T15:15:31;27.73;54.50
67275;DHT22;55463;52.324;5.122;2022-08-04T15:17:57;27.65;55.08
67275;DHT22;55463;52.324;5.122;2022-08-04T15:20:23;27.07;52.74
67275;DHT22;55463;52.324;5.122;2022-08-04T15:22:48;27.24;54.64
67275;DHT22;55463;52.324;5.122;2022-08-04T15:25:14;26.85;54.92
67275;DHT22;55463;52.324;5.122;2022-08-04T15:27:41;26.75;56.04
67275;DHT22;55463;52.324;5.122;2022-08-04T15:30:10;26.89;53.93
67275;DHT22;55463;52.324;5.122;2022-08-04T15:32:39;26.73;52.93
67275;DHT22;55463;52.324;5.122;2022-08-04T15:35:11;26.27;54.86
67275;DHT22;55463;52.324;5.122;2022-08-04T15:40:22;26.04;55.54
67275;DHT22;55463;52.324;5.122;2022-08-04T15:43:10;26.00;56.30
67275;DHT22;55463;52.324;5.122;2022-08-04T15:53:25;24.93;59.07
67275;DHT22;55463;52.324;5.122;2022-08-04T15:55:51;24.63;58.71
67275;DHT22;55463;52.324;5.122;2022-08-04T15:58:21;24.55;59.84
67275;DHT22;55463;52.324;5.122;2022-08-04T16:22:00;23.99;59.77
67275;DHT22;55463;52.324;5.122;2022-08-04T16:24:39;23.92;61.00
67275;DHT22;55463;52.324;5.122;2022-08-04T16:27:10;23.84;59.53
67275;DHT22;55463;52.324;5.122;2022-08-04T16:29:45;23.94;60.16
67275;DHT22;55463;52.324;5.122;2022-08-04T16:32:21;24.01;60.22
67275;DHT22;55463;52.324;5.122;2022-08-04T16:35:23;23.93;60.97
67275;DHT22;55463;52.324;5.122;2022-08-04T16:38:13;23.96;60.51
67275;DHT22;55463;52.324;5.122;2022-08-04T16:40:39;24.01;60.95
67275;DHT22;55463;52.324;5.122;2022-08-04T16:43:11;23.86;59.94
67275;DHT22;55463;52.324;5.122;2022-08-04T16:48:08;23.63;60.78
67275;DHT22;55463;52.324;5.122;2022-08-04T16:50:51;23.52;60.81
67275;DHT22;55463;52.324;5.122;2022-08-04T16:53:18;23.58;61.42
67275;DHT22;55463;52.324;5.122;2022-08-04T16:55:51;23.51;62.13
67275;DHT22;55463;52.324;5.122;2022-08-04T16:58:27;23.61;61.85
67275;DHT22;55463;52.324;5.122;2022-08-04T17:00:53;23.70;61.04
67275;DHT22;55463;52.324;5.122;2022-08-04T17:03:18;23.69;60.76
67275;DHT22;55463;52.324;5.122;2022-08-04T17:05:44;23.73;61.79
67275;DHT22;55463;52.324;5.122;2022-08-04T17:08:10;23.80;60.88
67275;DHT22;55463;52.324;5.122;2022-08-04T17:10:42;23.63;60.30
67275;DHT22;55463;52.324;5.122;2022-08-04T17:13:28;23.65;62.29
67275;DHT22;55463;52.324;5.122;2022-08-04T17:15:59;23.66;61.62
67275;DHT22;55463;52.324;5.122;2022-08-04T17:18:29;23.45;62.98
67275;DHT22;55463;52.324;5.122;2022-08-04T17:21:09;23.42;62.89
67275;DHT22;55463;52.324;5.122;2022-08-04T17:23:40;23.32;63.16
67275;DHT22;55463;52.324;5.122;2022-08-04T17:26:08;23.31;63.73
67275;DHT22;55463;52.324;5.122;2022-08-04T17:28:34;23.14;63.53
67275;DHT22;55463;52.324;5.122;2022-08-04T17:31:01;23.11;64.76
67275;DHT22;55463;52.324;5.122;2022-08-04T17:33:27;23.14;63.87
67275;DHT22;55463;52.324;5.122;2022-08-04T17:35:56;23.08;65.22
67275;DHT22;55463;52.324;5.122;2022-08-04T17:38:28;22.90;64.95
67275;DHT22;55463;52.324;5.122;2022-08-04T17:40:59;22.73;66.09
67275;DHT22;55463;52.324;5.122;2022-08-04T17:44:01;22.65;67.89
67275;DHT22;55463;52.324;5.122;2022-08-04T17:51:40;22.39;69.21
67275;DHT22;55463;52.324;5.122;2022-08-04T17:54:06;22.45;69.85
67275;DHT22;55463;52.324;5.122;2022-08-04T17:56:41;22.42;70.08
67275;DHT22;55463;52.324;5.122;2022-08-04T18:01:45;22.44;69.35
67275;DHT22;55463;52.324;5.122;2022-08-04T18:07:19;22.45;68.35
67275;DHT22;55463;52.324;5.122;2022-08-04T18:09:55;22.28;68.39
67275;DHT22;55463;52.324;5.122;2022-08-04T18:15:22;22.21;69.14
67275;DHT22;55463;52.324;5.122;2022-08-04T18:17:49;22.15;69.40
67275;DHT22;55463;52.324;5.122;2022-08-04T18:20:17;22.08;69.46
67275;DHT22;55463;52.324;5.122;2022-08-04T18:22:47;22.08;70.22
67275;DHT22;55463;52.324;5.122;2022-08-04T18:25:15;22.01;72.10
67275;DHT22;55463;52.324;5.122;2022-08-04T18:27:54;21.87;73.37
67275;DHT22;55463;52.324;5.122;2022-08-04T18:30:25;21.79;73.67
67275;DHT22;55463;52.324;5.122;2022-08-04T18:32:52;21.83;74.13
67275;DHT22;55463;52.324;5.122;2022-08-04T18:35:20;21.80;74.90
67275;DHT22;55463;52.324;5.122;2022-08-04T18:37:45;21.76;74.61
67275;DHT22;55463;52.324;5.122;2022-08-04T18:40:11;21.79;75.24
67275;DHT22;55463;52.324;5.122;2022-08-04T18:42:38;21.69;75.01
67275;DHT22;55463;52.324;5.122;2022-08-04T18:45:03;21.58;74.83
67275;DHT22;55463;52.324;5.122;2022-08-04T18:47:30;21.59;74.77
67275;DHT22;55463;52.324;5.122;2022-08-04T18:49:55;21.59;74.14
67275;DHT22;55463;52.324;5.122;2022-08-04T18:52:21;21.62;74.26
67275;DHT22;55463;52.324;5.122;2022-08-04T18:54:47;21.62;74.47
67275;DHT22;55463;52.324;5.122;2022-08-04T18:57:19;21.59;74.92
67275;DHT22;55463;52.324;5.122;2022-08-04T18:59:45;21.50;75.79
67275;DHT22;55463;52.324;5.122;2022-08-04T19:02:10;21.53;76.18
67275;DHT22;55463;52.324;5.122;2022-08-04T19:04:36;21.50;76.18
67275;DHT22;55463;52.324;5.122;2022-08-04T19:07:02;21.45;75.31
67275;DHT22;55463;52.324;5.122;2022-08-04T19:09:27;21.38;75.79
67275;DHT22;55463;52.324;5.122;2022-08-04T19:11:52;21.35;75.85
67275;DHT22;55463;52.324;5.122;2022-08-04T19:14:18;21.22;75.59
67275;DHT22;55463;52.324;5.122;2022-08-04T19:16:44;21.20;75.65
67275;DHT22;55463;52.324;5.122;2022-08-04T19:19:10;21.18;76.09
67275;DHT22;55463;52.324;5.122;2022-08-04T19:21:36;21.05;76.28
67275;DHT22;55463;52.324;5.122;2022-08-04T19:24:04;21.01;76.66
67275;DHT22;55463;52.324;5.122;2022-08-04T19:26:30;20.96;77.05
67275;DHT22;55463;52.324;5.122;2022-08-04T19:28:55;20.91;77.16
67275;DHT22;55463;52.324;5.122;2022-08-04T19:31:21;20.88;77.50
67275;DHT22;55463;52.324;5.122;2022-08-04T19:33:47;20.81;77.63
67275;DHT22;55463;52.324;5.122;2022-08-04T19:36:13;20.76;78.22
67275;DHT22;55463;52.324;5.122;2022-08-04T19:38:38;20.70;78.95
67275;DHT22;55463;52.324;5.122;2022-08-04T19:41:06;20.73;78.90
67275;DHT22;55463;52.324;5.122;2022-08-04T19:43:32;20.70;78.80
67275;DHT22;55463;52.324;5.122;2022-08-04T19:45:58;20.66;79.04
67275;DHT22;55463;52.324;5.122;2022-08-04T19:48:23;20.68;78.82
67275;DHT22;55463;52.324;5.122;2022-08-04T19:50:49;20.68;79.29
67275;DHT22;55463;52.324;5.122;2022-08-04T19:53:14;20.70;78.98
67275;DHT22;55463;52.324;5.122;2022-08-04T19:55:41;20.62;79.02
67275;DHT22;55463;52.324;5.122;2022-08-04T19:58:07;20.62;78.86
67275;DHT22;55463;52.324;5.122;2022-08-04T20:00:33;20.56;79.47
67275;DHT22;55463;52.324;5.122;2022-08-04T20:02:59;20.56;80.01
67275;DHT22;55463;52.324;5.122;2022-08-04T20:05:25;20.55;79.71
67275;DHT22;55463;52.324;5.122;2022-08-04T20:07:50;20.49;79.86
67275;DHT22;55463;52.324;5.122;2022-08-04T20:10:16;20.43;79.76